createdAt,value
2019-02-28T00:01:32.506Z,98044.14
2019-02-28T00:04:00.620Z,98042.91
2019-02-28T00:06:28.620Z,98039.85
2019-02-28T00:08:56.639Z,98034.29
2019-02-28T00:11:24.632Z,98033.90
2019-02-28T00:13:55.974Z,98027.83
2019-02-28T00:16:22.699Z,98027.47
2019-02-28T00:18:50.785Z,98028.39
2019-02-28T00:21:18.697Z,98010.09
2019-02-28T00:23:46.811Z,98012.31
2019-02-28T00:26:14.564Z,98005.44
2019-02-28T00:28:42.447Z,98001.66
2019-02-28T00:31:14.215Z,97992.98
2019-02-28T00:33:40.468Z,97990.79
2019-02-28T00:36:08.392Z,97982.64
2019-02-28T00:38:36.485Z,97975.27
2019-02-28T00:41:04.735Z,97973.10
2019-02-28T00:43:32.714Z,97964.01
2019-02-28T00:46:00.600Z,97962.28
2019-02-28T00:48:28.662Z,97956.33
2019-02-28T00:50:58.546Z,97950.52
2019-02-28T00:53:26.675Z,97954.61
2019-02-28T00:55:54.809Z,97953.86
2019-02-28T00:58:22.918Z,97951.64
2019-02-28T01:00:50.853Z,97940.91
2019-02-28T01:03:19.897Z,97934.38
2019-02-28T01:05:47.763Z,97933.67
2019-02-28T01:08:16.021Z,97937.45
2019-02-28T01:10:44.290Z,97932.64
2019-02-28T01:13:14.005Z,97932.34
2019-02-28T01:15:45.088Z,97930.33
2019-02-28T01:18:11.689Z,97928.55
2019-02-28T01:20:39.746Z,97925.10
2019-02-28T01:23:07.616Z,97918.55
2019-02-28T01:25:37.203Z,97915.94
2019-02-28T01:28:05.426Z,97909.41
2019-02-28T01:30:33.338Z,97912.95
2019-02-28T01:33:01.321Z,97915.46
2019-02-28T01:35:29.137Z,97914.81
2019-02-28T01:37:56.948Z,97912.13
2019-02-28T01:40:24.678Z,97907.40
2019-02-28T01:42:54.839Z,97893.40
2019-02-28T01:45:22.458Z,97886.40
2019-02-28T01:47:51.907Z,97885.20
2019-02-28T01:50:20.515Z,97878.78
2019-02-28T01:52:49.511Z,97875.86
2019-02-28T01:55:17.457Z,97870.66
2019-02-28T01:57:45.491Z,97869.86
2019-02-28T02:00:14.018Z,97857.33
2019-02-28T02:02:41.787Z,97859.55
2019-02-28T02:05:09.774Z,97856.97
2019-02-28T02:07:37.614Z,97854.84
2019-02-28T02:10:11.167Z,97849.66
2019-02-28T02:12:39.018Z,97852.27
2019-02-28T02:15:07.809Z,97851.53
2019-02-28T02:17:36.242Z,97841.15
2019-02-28T02:20:04.511Z,97837.33
2019-02-28T02:22:32.323Z,97836.89
2019-02-28T02:25:02.947Z,97838.70
2019-02-28T02:27:30.808Z,97834.41
2019-02-28T02:29:58.852Z,97825.36
2019-02-28T02:32:26.863Z,97823.34
2019-02-28T02:34:54.924Z,97824.98
2019-02-28T02:37:26.393Z,97812.91
2019-02-28T02:39:52.766Z,97814.73
2019-02-28T02:42:20.702Z,97806.45
2019-02-28T02:44:48.629Z,97809.52
2019-02-28T02:47:16.715Z,97800.47
2019-02-28T02:49:44.625Z,97804.84
2019-02-28T02:52:12.383Z,97798.37
2019-02-28T02:54:40.331Z,97800.47
2019-02-28T02:57:08.318Z,97796.91
2019-02-28T02:59:38.947Z,97805.84
2019-02-28T03:02:06.249Z,97787.64
2019-02-28T03:04:34.223Z,97791.61
2019-02-28T03:07:02.199Z,97795.52
2019-02-28T03:09:30.317Z,97788.09
2019-02-28T03:11:58.841Z,97790.18
2019-02-28T03:14:26.765Z,97776.33
2019-02-28T03:16:54.656Z,97781.18
2019-02-28T03:19:22.609Z,97779.03
2019-02-28T03:21:52.613Z,97770.23
2019-02-28T03:24:20.505Z,97777.47
2019-02-28T03:26:48.352Z,97764.47
2019-02-28T03:29:16.225Z,97777.06
2019-02-28T03:31:55.073Z,97768.38
2019-02-28T03:34:14.372Z,97770.98
2019-02-28T03:36:42.566Z,97773.66
2019-02-28T03:39:10.776Z,97758.94
2019-02-28T03:41:38.531Z,97768.09
2019-02-28T03:44:07.585Z,97754.63
2019-02-28T03:46:35.656Z,97754.29
2019-02-28T03:49:11.170Z,97758.18
2019-02-28T03:51:33.591Z,97757.42
2019-02-28T03:54:01.458Z,97756.60
2019-02-28T03:56:29.433Z,97755.84
2019-02-28T03:58:57.628Z,97753.69
2019-02-28T04:01:25.584Z,97759.34
2019-02-28T04:03:53.636Z,97746.00
2019-02-28T04:06:21.525Z,97748.64
2019-02-28T04:08:49.774Z,97738.18
2019-02-28T04:11:17.816Z,97731.25
2019-02-28T04:13:45.753Z,97733.02
2019-02-28T04:16:14.937Z,97724.85
2019-02-28T04:18:46.102Z,97730.48
2019-02-28T04:21:12.731Z,97728.27
2019-02-28T04:23:40.665Z,97722.29
2019-02-28T04:26:08.545Z,97718.48
2019-02-28T04:28:36.720Z,97708.42
2019-02-28T04:31:04.990Z,97710.12
2019-02-28T04:33:37.358Z,97711.87
2019-02-28T04:36:02.901Z,97714.03
2019-02-28T04:38:30.840Z,97712.69
2019-02-28T04:40:59.130Z,97705.81
2019-02-28T04:43:28.080Z,97705.35
2019-02-28T04:45:57.665Z,97700.08
2019-02-28T04:48:26.056Z,97698.80
2019-02-28T04:50:54.043Z,97706.66
2019-02-28T04:53:22.067Z,97706.73
2019-02-28T04:55:50.108Z,97697.70
2019-02-28T04:58:18.207Z,97693.01
2019-02-28T05:00:46.219Z,97686.52
2019-02-28T05:03:14.260Z,97685.80
2019-02-28T05:05:46.499Z,97686.56
2019-02-28T05:08:12.105Z,97689.28
2019-02-28T05:10:39.988Z,97680.59
2019-02-28T05:13:07.860Z,97677.52
2019-02-28T05:15:38.500Z,97671.89
2019-02-28T05:18:06.030Z,97674.95
2019-02-28T05:20:35.140Z,97667.98
2019-02-28T05:23:03.266Z,97671.08
2019-02-28T05:25:31.309Z,97655.01
2019-02-28T05:27:59.555Z,97663.61
2019-02-28T05:30:27.455Z,97656.50
2019-02-28T05:32:55.414Z,97648.20
2019-02-28T05:35:30.432Z,97649.06
2019-02-28T05:37:58.617Z,97654.27
2019-02-28T05:40:26.670Z,97655.56
2019-02-28T05:42:58.517Z,97655.13
2019-02-28T05:45:24.503Z,97653.41
2019-02-28T05:47:52.505Z,97654.20
2019-02-28T05:50:20.532Z,97644.70
2019-02-28T05:52:48.587Z,97649.03
2019-02-28T05:55:16.642Z,97650.72
2019-02-28T05:57:45.018Z,97645.51
2019-02-28T06:00:14.427Z,97639.44
2019-02-28T06:02:42.569Z,97631.95
2019-02-28T06:05:11.954Z,97633.64
2019-02-28T06:07:40.552Z,97636.14
2019-02-28T06:10:08.653Z,97635.88
2019-02-28T06:12:36.602Z,97638.30
2019-02-28T06:15:05.885Z,97630.20
2019-02-28T06:17:33.812Z,97631.23
2019-02-28T06:20:01.848Z,97628.38
2019-02-28T06:22:31.082Z,97640.20
2019-02-28T06:24:59.710Z,97634.05
2019-02-28T06:27:27.563Z,97636.30
2019-02-28T06:29:55.443Z,97633.23
2019-02-28T06:32:24.741Z,97637.56
2019-02-28T06:34:52.825Z,97638.31
2019-02-28T06:37:20.643Z,97635.00
2019-02-28T06:39:48.457Z,97625.43
2019-02-28T06:42:16.373Z,97618.52
2019-02-28T06:44:44.205Z,97620.64
2019-02-28T06:47:14.196Z,97610.70
2019-02-28T06:49:42.145Z,97609.44
2019-02-28T06:52:10.183Z,97607.94
2019-02-28T06:54:39.942Z,97591.13
2019-02-28T06:57:07.996Z,97595.55
2019-02-28T06:59:36.187Z,97598.12
2019-02-28T07:02:05.941Z,97593.56
2019-02-28T07:04:33.822Z,97599.51
2019-02-28T07:07:01.902Z,97588.59
2019-02-28T07:09:30.526Z,97588.53
2019-02-28T07:11:58.631Z,97584.37
2019-02-28T07:14:26.993Z,97581.53
2019-02-28T07:16:54.789Z,97576.91
2019-02-28T07:19:26.287Z,97570.72
2019-02-28T07:21:52.515Z,97567.44
2019-02-28T07:24:20.489Z,97563.73
2019-02-28T07:26:52.263Z,97561.86
2019-02-28T07:29:18.609Z,97555.90
2019-02-28T07:31:46.733Z,97556.43
2019-02-28T07:34:19.691Z,97555.54
2019-02-28T07:36:45.750Z,97559.00
2019-02-28T07:39:13.965Z,97556.02
2019-02-28T07:41:42.116Z,97548.83
2019-02-28T07:44:10.028Z,97545.68
2019-02-28T07:46:38.826Z,97537.59
2019-02-28T07:49:09.649Z,97536.79
2019-02-28T07:51:37.916Z,97535.77
2019-02-28T07:54:05.983Z,97535.36
2019-02-28T07:56:34.183Z,97534.00
2019-02-28T07:59:05.346Z,97526.20
2019-02-28T08:01:36.073Z,97527.84
2019-02-28T08:04:04.109Z,97517.19
2019-02-28T08:06:32.211Z,97517.97
2019-02-28T08:09:01.778Z,97510.66
2019-02-28T08:11:32.042Z,97506.52
2019-02-28T08:13:59.886Z,97505.05
2019-02-28T08:16:30.612Z,97496.53
2019-02-28T08:18:57.765Z,97491.88
2019-02-28T08:21:25.912Z,97490.48
2019-02-28T08:23:53.709Z,97483.69
2019-02-28T08:26:21.848Z,97473.12
2019-02-28T08:28:49.851Z,97475.14
2019-02-28T08:31:17.747Z,97463.37
2019-02-28T08:33:48.181Z,97467.78
2019-02-28T08:36:15.652Z,97464.42
2019-02-28T08:38:43.810Z,97459.50
2019-02-28T08:41:11.784Z,97454.52
2019-02-28T08:43:39.641Z,97452.96
2019-02-28T08:46:11.113Z,97451.20
2019-02-28T08:48:37.229Z,97447.92
2019-02-28T08:51:05.460Z,97447.77
2019-02-28T08:53:33.456Z,97436.25
2019-02-28T08:56:01.424Z,97433.50
2019-02-28T08:58:29.380Z,97425.91
2019-02-28T09:00:57.377Z,97425.98
2019-02-28T09:03:27.396Z,97421.08
2019-02-28T09:05:55.517Z,97414.98
2019-02-28T09:08:25.320Z,97417.01
2019-02-28T09:10:53.495Z,97408.20
2019-02-28T09:13:21.412Z,97403.53
2019-02-28T09:15:50.640Z,97408.81
2019-02-28T09:18:18.917Z,97404.30
2019-02-28T09:20:46.987Z,97389.33
2019-02-28T09:23:14.924Z,97386.98
2019-02-28T09:25:43.027Z,97383.03
2019-02-28T09:28:13.150Z,97379.74
2019-02-28T09:30:40.789Z,97377.45
2019-02-28T09:33:08.650Z,97372.55
2019-02-28T09:35:36.744Z,97372.89
2019-02-28T09:38:08.030Z,97372.86
2019-02-28T09:40:34.420Z,97363.23
2019-02-28T09:43:02.216Z,97362.55
2019-02-28T09:45:30.462Z,97358.02
2019-02-28T09:48:01.837Z,97354.61
2019-02-28T09:50:28.292Z,97347.46
2019-02-28T09:52:56.328Z,97345.34
2019-02-28T09:55:24.530Z,97343.86
2019-02-28T09:57:54.817Z,97345.28
2019-02-28T10:00:22.609Z,97341.07
2019-02-28T10:02:50.680Z,97339.38
2019-02-28T10:05:18.703Z,97341.17
2019-02-28T10:07:46.875Z,97333.20
2019-02-28T10:10:17.474Z,97328.58
2019-02-28T10:12:46.648Z,97320.43
2019-02-28T10:15:16.261Z,97316.80
2019-02-28T10:17:44.230Z,97309.58
2019-02-28T10:20:16.358Z,97304.67
2019-02-28T10:22:47.325Z,97304.73
2019-02-28T10:25:14.977Z,97293.59
2019-02-28T10:27:43.092Z,97295.31
2019-02-28T10:30:15.949Z,97287.64
2019-02-28T10:32:44.106Z,97284.98
2019-02-28T10:35:13.096Z,97285.69
2019-02-28T10:37:40.988Z,97282.65
2019-02-28T10:40:10.788Z,97275.57
2019-02-28T10:42:41.250Z,97276.14
2019-02-28T10:45:09.783Z,97267.69
2019-02-28T10:47:37.810Z,97259.57
2019-02-28T10:50:07.689Z,97251.42
2019-02-28T10:52:35.732Z,97247.53
2019-02-28T10:55:04.115Z,97240.93
2019-02-28T10:57:32.229Z,97232.33
2019-02-28T11:00:00.230Z,97232.33
2019-02-28T11:02:28.680Z,97228.28
2019-02-28T11:04:56.647Z,97228.01
2019-02-28T11:07:25.063Z,97224.00
2019-02-28T11:09:55.637Z,97229.98
2019-02-28T11:12:24.267Z,97214.73
2019-02-28T11:14:52.333Z,97213.53
2019-02-28T11:17:20.322Z,97209.93
2019-02-28T11:19:48.521Z,97202.38
2019-02-28T11:22:18.420Z,97196.43
2019-02-28T11:24:46.681Z,97194.08
2019-02-28T11:27:16.156Z,97198.98
2019-02-28T11:29:44.659Z,97191.79
2019-02-28T11:32:12.659Z,97188.53
2019-02-28T11:34:40.522Z,97178.82
2019-02-28T11:37:09.079Z,97179.84
2019-02-28T11:39:38.037Z,97180.52
2019-02-28T11:42:06.537Z,97169.87
2019-02-28T11:44:34.441Z,97159.35
2019-02-28T11:47:02.236Z,97157.55
2019-02-28T11:49:30.242Z,97158.66
2019-02-28T11:51:58.275Z,97142.52
2019-02-28T11:54:26.308Z,97147.08
2019-02-28T11:56:54.237Z,97139.38
2019-02-28T11:59:24.205Z,97126.35
2019-02-28T12:01:52.155Z,97120.44
2019-02-28T12:04:20.090Z,97075.92
2019-02-28T12:06:48.183Z,97112.02
2019-02-28T12:09:16.326Z,97120.23
2019-02-28T12:11:46.102Z,97115.16
2019-02-28T12:14:14.244Z,97110.83
2019-02-28T12:16:42.292Z,97099.91
2019-02-28T12:19:12.476Z,97099.91
2019-02-28T12:21:40.305Z,97095.74
2019-02-28T12:24:08.091Z,97095.74
2019-02-28T12:26:36.133Z,97112.73
2019-02-28T12:29:04.082Z,97091.84
2019-02-28T12:31:35.556Z,97097.66
2019-02-28T12:34:01.933Z,97097.66
2019-02-28T12:36:30.035Z,97080.44
2019-02-28T12:38:59.419Z,97076.98
2019-02-28T12:41:28.015Z,97070.45
2019-02-28T12:43:56.218Z,97062.37
2019-02-28T12:46:24.372Z,97056.84
2019-02-28T12:48:52.277Z,97048.80
2019-02-28T12:51:21.281Z,97043.18
2019-02-28T12:53:49.366Z,97046.57
2019-02-28T12:56:17.458Z,97043.19
2019-02-28T12:58:45.462Z,97038.94
2019-02-28T13:01:13.865Z,97034.52
2019-02-28T13:03:42.075Z,97033.73
2019-02-28T13:06:10.122Z,97035.80
2019-02-28T13:08:38.671Z,97037.34
2019-02-28T13:11:08.346Z,97036.98
2019-02-28T13:13:36.395Z,97033.61
2019-02-28T13:16:04.504Z,97030.70
2019-02-28T13:18:32.663Z,97020.99
2019-02-28T13:21:00.605Z,97010.23
2019-02-28T13:23:32.893Z,96999.86
2019-02-28T13:26:00.035Z,96998.80
2019-02-28T13:28:28.514Z,96988.95
2019-02-28T13:30:56.762Z,96980.53
2019-02-28T13:33:24.840Z,96977.88
2019-02-28T13:35:52.993Z,96970.70
2019-02-28T13:38:20.890Z,96975.20
2019-02-28T13:40:49.087Z,96976.91
2019-02-28T13:43:20.982Z,96976.55
2019-02-28T13:45:50.653Z,96984.53
2019-02-28T13:48:25.611Z,96975.92
2019-02-28T13:50:46.592Z,96975.35
2019-02-28T13:53:18.576Z,96972.90
2019-02-28T13:55:44.434Z,96973.09
2019-02-28T13:58:12.554Z,96963.59
2019-02-28T14:00:45.590Z,96963.12
2019-02-28T14:03:10.663Z,96966.70
2019-02-28T14:05:40.972Z,96962.84
2019-02-28T14:08:12.006Z,96949.89
2019-02-28T14:10:40.479Z,96950.09
2019-02-28T14:13:08.534Z,96951.52
2019-02-28T14:15:39.327Z,96942.72
2019-02-28T14:18:07.496Z,96943.11
2019-02-28T14:20:38.262Z,96946.83
2019-02-28T14:23:07.731Z,96938.80
2019-02-28T14:25:36.384Z,96935.60
2019-02-28T14:28:06.128Z,96937.81
2019-02-28T14:30:34.063Z,96931.65
2019-02-28T14:33:02.271Z,96926.80
2019-02-28T14:35:34.123Z,96925.75
2019-02-28T14:38:00.196Z,96925.73
2019-02-28T14:40:28.383Z,96923.15
2019-02-28T14:42:56.511Z,96931.34
2019-02-28T14:45:24.779Z,96930.81
2019-02-28T14:47:56.802Z,96935.72
2019-02-28T14:50:22.619Z,96933.26
2019-02-28T14:52:51.325Z,96920.75
2019-02-28T14:55:19.695Z,96911.34
2019-02-28T14:57:48.900Z,96924.43
2019-02-28T15:00:23.965Z,96929.55
2019-02-28T15:02:51.862Z,96910.28
2019-02-28T15:05:20.630Z,96920.31
2019-02-28T15:07:49.861Z,96922.17
2019-02-28T15:10:18.241Z,96932.44
2019-02-28T15:12:46.101Z,96909.51
2019-02-28T15:15:17.963Z,96929.04
2019-02-28T15:17:45.632Z,96916.68
2019-02-28T15:20:13.927Z,96926.70
2019-02-28T15:22:41.990Z,96916.23
2019-02-28T15:25:11.122Z,96916.43
2019-02-28T15:27:39.885Z,96916.95
2019-02-28T15:30:11.059Z,96918.51
2019-02-28T15:32:41.836Z,96917.33
2019-02-28T15:35:12.440Z,96915.73
2019-02-28T15:37:41.666Z,96918.44
2019-02-28T15:40:11.818Z,96904.55
2019-02-28T15:42:42.866Z,96913.47
2019-02-28T15:45:09.927Z,96924.49
2019-02-28T15:47:38.188Z,96932.84
2019-02-28T15:50:07.052Z,96932.84
2019-02-28T15:52:36.685Z,96906.77
2019-02-28T15:55:05.334Z,96921.41
2019-02-28T15:57:33.425Z,96930.88
2019-02-28T16:00:01.424Z,96927.02
2019-02-28T16:02:29.320Z,96939.41
2019-02-28T16:05:05.181Z,96940.06
2019-02-28T16:07:32.266Z,96949.83
2019-02-28T16:09:58.446Z,96930.84
2019-02-28T16:12:26.367Z,96932.57
2019-02-28T16:14:54.306Z,96945.74
2019-02-28T16:17:22.207Z,96944.06
2019-02-28T16:19:53.222Z,96944.63
2019-02-28T16:22:20.393Z,96933.20
2019-02-28T16:24:49.717Z,96926.39
2019-02-28T16:27:20.503Z,96927.23
2019-02-28T16:29:48.388Z,96933.47
2019-02-28T16:32:18.225Z,96939.07
2019-02-28T16:34:48.100Z,96927.92
2019-02-28T16:37:16.346Z,96932.02
2019-02-28T16:39:44.254Z,96946.80
2019-02-28T16:42:12.505Z,96942.77
2019-02-28T16:44:40.625Z,96933.70
2019-02-28T16:47:08.639Z,96963.47
2019-02-28T16:49:36.648Z,96947.48
2019-02-28T16:52:06.084Z,96959.75
2019-02-28T16:54:34.588Z,96955.19
2019-02-28T16:57:02.641Z,96959.87
2019-02-28T16:59:31.701Z,96964.88
2019-02-28T17:02:00.442Z,96960.52
2019-02-28T17:04:28.359Z,96971.22
2019-02-28T17:06:56.609Z,96961.00
2019-02-28T17:09:35.636Z,96970.19
2019-02-28T17:12:11.613Z,96971.84
2019-02-28T17:14:39.547Z,96983.90
2019-02-28T17:17:29.752Z,96980.83
2019-02-28T17:19:57.834Z,96978.49
2019-02-28T17:22:27.021Z,96991.88
2019-02-28T17:24:55.595Z,96995.20
2019-02-28T17:27:48.885Z,96999.19
2019-02-28T17:30:32.995Z,97004.56
2019-02-28T17:33:01.592Z,96990.44
2019-02-28T17:35:30.663Z,97010.63
2019-02-28T17:38:00.197Z,96993.34
2019-02-28T17:40:29.297Z,97005.41
2019-02-28T17:42:57.442Z,97003.52
2019-02-28T17:45:28.803Z,96994.66
2019-02-28T17:48:48.538Z,96992.30
2019-02-28T17:51:42.467Z,96998.84
2019-02-28T17:54:49.885Z,97011.86
2019-02-28T17:58:11.589Z,96992.92
2019-02-28T18:01:09.711Z,97009.32
2019-02-28T18:04:16.974Z,97007.27
2019-02-28T18:07:42.730Z,96993.21
2019-02-28T18:10:55.750Z,96999.20
2019-02-28T18:13:52.140Z,96997.47
2019-02-28T18:16:44.889Z,97004.33
2019-02-28T18:19:57.578Z,97020.27
2019-02-28T18:22:54.051Z,97024.97
2019-02-28T18:25:58.822Z,97021.47
2019-02-28T18:29:09.715Z,97018.79
2019-02-28T18:31:37.759Z,97020.63
2019-02-28T18:34:11.199Z,97028.16
2019-02-28T18:36:40.141Z,97012.06
2019-02-28T18:39:11.683Z,97007.42
2019-02-28T18:41:42.150Z,97015.47
2019-02-28T18:44:09.966Z,97004.17
2019-02-28T18:46:37.994Z,97019.06
2019-02-28T18:49:06.064Z,97011.35
2019-02-28T18:51:34.119Z,97026.59
2019-02-28T18:54:02.433Z,97013.39
2019-02-28T18:56:30.873Z,97026.80
2019-02-28T18:58:58.797Z,97026.39
2019-02-28T19:01:26.847Z,97028.33
2019-02-28T19:03:56.558Z,97024.53
2019-02-28T19:06:24.666Z,97038.08
2019-02-28T19:08:55.762Z,97020.03
2019-02-28T19:11:23.815Z,97025.86
2019-02-28T19:13:51.893Z,97030.25
2019-02-28T19:16:19.806Z,97022.91
2019-02-28T19:18:47.909Z,97033.55
2019-02-28T19:21:15.800Z,97026.15
2019-02-28T19:23:43.944Z,97035.12
2019-02-28T19:26:11.894Z,97033.42
2019-02-28T19:28:39.820Z,97024.40
2019-02-28T19:31:07.680Z,97035.12
2019-02-28T19:33:35.730Z,97031.33
2019-02-28T19:36:03.330Z,97035.17
2019-02-28T19:38:31.009Z,97035.66
2019-02-28T19:40:58.698Z,97045.17
2019-02-28T19:43:26.408Z,97034.22
2019-02-28T19:45:54.284Z,97047.64
2019-02-28T19:48:24.999Z,97041.70
2019-02-28T19:50:53.387Z,97041.41
2019-02-28T19:53:20.933Z,97057.86
2019-02-28T19:55:48.550Z,97042.02
2019-02-28T19:58:16.186Z,97038.88
2019-02-28T20:00:43.861Z,97043.42
2019-02-28T20:03:11.476Z,97048.39
2019-02-28T20:05:39.260Z,97052.47
2019-02-28T20:08:07.000Z,97050.29
2019-02-28T20:10:34.772Z,97056.98
2019-02-28T20:13:03.684Z,97061.41
2019-02-28T20:15:33.080Z,97064.09
2019-02-28T20:18:00.901Z,97054.61
2019-02-28T20:20:28.735Z,97064.05
2019-02-28T20:22:56.589Z,97063.11
2019-02-28T20:25:24.321Z,97060.78
2019-02-28T20:27:52.107Z,97058.11
2019-02-28T20:30:21.637Z,97072.87
2019-02-28T20:32:49.492Z,97082.69
2019-02-28T20:35:25.909Z,97076.86
2019-02-28T20:37:46.950Z,97076.96
2019-02-28T20:40:17.994Z,97082.03
2019-02-28T20:42:45.523Z,97079.28
2019-02-28T20:45:13.127Z,97070.98
2019-02-28T20:47:40.784Z,97081.47
2019-02-28T20:50:11.942Z,97086.64
2019-02-28T20:52:39.579Z,97082.31
2019-02-28T20:55:07.399Z,97094.09
2019-02-28T20:57:35.258Z,97088.78
2019-02-28T21:00:04.083Z,97088.52
2019-02-28T21:02:32.072Z,97089.89
2019-02-28T21:04:59.797Z,97090.42
2019-02-28T21:07:27.502Z,97086.52
2019-02-28T21:09:55.172Z,97087.68
2019-02-28T21:12:22.926Z,97088.17
2019-02-28T21:14:50.538Z,97087.66
2019-02-28T21:17:18.148Z,97087.64
2019-02-28T21:19:45.885Z,97102.77
2019-02-28T21:22:13.473Z,97110.88
2019-02-28T21:24:41.089Z,97100.67
2019-02-28T21:27:11.325Z,97106.45
2019-02-28T21:29:38.985Z,97102.43
2019-02-28T21:32:06.690Z,97109.90
2019-02-28T21:34:34.465Z,97107.70
2019-02-28T21:37:03.318Z,97104.11
2019-02-28T21:39:30.970Z,97103.97
2019-02-28T21:41:58.579Z,97117.69
2019-02-28T21:44:26.368Z,97109.30
2019-02-28T21:46:54.058Z,97112.81
2019-02-28T21:49:21.714Z,97110.38
2019-02-28T21:51:49.362Z,97121.98
2019-02-28T21:54:16.994Z,97126.40
2019-02-28T21:56:45.795Z,97128.22
2019-02-28T21:59:13.352Z,97121.57
2019-02-28T22:01:40.991Z,97116.70
2019-02-28T22:04:08.597Z,97117.58
2019-02-28T22:06:36.196Z,97115.99
2019-02-28T22:09:05.032Z,97124.25
2019-02-28T22:11:37.128Z,97124.48
2019-02-28T22:14:04.671Z,97125.82
2019-02-28T22:16:33.254Z,97132.80
2019-02-28T22:19:00.824Z,97136.73
2019-02-28T22:21:28.435Z,97135.45
2019-02-28T22:23:55.985Z,97131.45
2019-02-28T22:26:23.508Z,97134.84
2019-02-28T22:28:52.628Z,97132.17
2019-02-28T22:31:47.947Z,97143.70
2019-02-28T22:34:37.845Z,97132.48
2019-02-28T22:37:05.426Z,97131.79
2019-02-28T22:39:33.083Z,97137.52
2019-02-28T22:42:00.668Z,97129.48
2019-02-28T22:44:28.317Z,97139.05
2019-02-28T22:46:55.863Z,97145.33
2019-02-28T22:49:23.548Z,97138.74
2019-02-28T22:51:51.079Z,97140.27
2019-02-28T22:54:18.747Z,97140.80
2019-02-28T22:56:46.299Z,97141.95
2019-02-28T22:59:13.926Z,97147.72
2019-02-28T23:01:41.651Z,97146.92
2019-02-28T23:04:09.343Z,97144.35
2019-02-28T23:06:36.921Z,97142.92
2019-02-28T23:09:05.688Z,97148.68
2019-02-28T23:11:34.550Z,97161.79
2019-02-28T23:14:02.180Z,97166.98
2019-02-28T23:16:29.750Z,97159.88
2019-02-28T23:18:57.356Z,97154.92
2019-02-28T23:21:24.949Z,97154.03
2019-02-28T23:23:52.599Z,97153.41
2019-02-28T23:26:25.043Z,97151.50
2019-02-28T23:29:10.133Z,97161.45
2019-02-28T23:32:18.107Z,97161.65
2019-02-28T23:34:49.010Z,97170.41
2019-02-28T23:37:16.636Z,97168.98
2019-02-28T23:39:44.284Z,97169.45
2019-02-28T23:42:11.869Z,97168.01
2019-02-28T23:44:39.565Z,97163.98
2019-02-28T23:47:07.176Z,97167.35
2019-02-28T23:49:34.815Z,97171.71
2019-02-28T23:52:02.398Z,97185.38
2019-02-28T23:54:29.978Z,97183.90
2019-02-28T23:56:57.520Z,97186.52
2019-02-28T23:59:25.157Z,97181.83
